Time;durP1;ratioP1;P1;durP2;ratioP2;P2;SDS_P1;SDS_P2;PMS_P1;PMS_P2;Temp;Humidity;BMP_temperature;BMP_pressure;BME280_temperature;BME280_humidity;BME280_pressure;Samples;Min_cycle;Max_cycle;Signal;HPM_P1;HPM_P2
2024/02/15 00:01:04;;;;;;;1999.90;999.90;;;13.50;99.90;;;;;;4954512;28;20939;-75
2024/02/15 00:03:31;;;;;;;1999.90;999.90;;;13.50;99.90;;;;;;4954658;28;20449;-76
2024/02/15 00:05:57;;;;;;;1999.90;999.90;;;13.50;99.90;;;;;;4954688;28;20408;-75
2024/02/15 00:08:24;;;;;;;1999.90;999.90;;;13.50;99.90;;;;;;4954580;28;20865;-75
2024/02/15 00:10:50;;;;;;;1999.90;999.90;;;13.50;99.90;;;;;;4954531;28;20914;-76
2024/02/15 00:13:15;;;;;;;1999.90;999.90;;;13.50;99.90;;;;;;4954483;28;20439;-76
2024/02/15 00:15:41;;;;;;;1999.90;999.90;;;13.60;99.90;;;;;;4954523;28;20202;-76
2024/02/15 00:18:07;;;;;;;1999.90;999.90;;;13.60;99.90;;;;;;4954416;28;20640;-76
2024/02/15 00:20:35;;;;;;;1999.90;999.90;;;13.60;99.90;;;;;;4953982;28;20167;-75
2024/02/15 00:23:01;;;;;;;1999.90;999.90;;;13.30;99.90;;;;;;4954075;28;20165;-76
2024/02/15 00:25:26;;;;;;;1999.90;999.90;;;13.50;99.90;;;;;;4954208;28;20913;-75
2024/02/15 00:27:52;;;;;;;1999.90;999.90;;;13.60;99.90;;;;;;4954335;28;20189;-76
2024/02/15 00:30:18;;;;;;;1999.90;999.90;;;13.60;99.90;;;;;;4953848;28;20183;-75
2024/02/15 00:32:46;;;;;;;1999.90;999.90;;;13.50;99.90;;;;;;4954215;28;20179;-75
2024/02/15 00:35:13;;;;;;;1999.90;999.90;;;13.60;99.90;;;;;;4969071;28;20572;-76
2024/02/15 00:37:40;;;;;;;1999.90;999.90;;;13.60;99.90;;;;;;4953968;28;20409;-75
2024/02/15 00:40:07;;;;;;;1999.90;999.90;;;13.60;99.90;;;;;;4953831;28;20401;-75
2024/02/15 00:42:32;;;;;;;1999.90;999.90;;;13.60;99.90;;;;;;4953995;28;20430;-75
2024/02/15 00:44:58;;;;;;;1999.90;999.90;;;13.60;99.90;;;;;;4954017;28;20427;-76
2024/02/15 00:47:24;;;;;;;1999.90;999.90;;;13.60;99.90;;;;;;4954083;28;20582;-76
2024/02/15 00:49:52;;;;;;;1999.90;999.90;;;13.60;99.90;;;;;;4953766;28;20178;-75
2024/02/15 00:52:18;;;;;;;1999.90;999.90;;;13.60;99.90;;;;;;4953924;28;20174;-75
2024/02/15 00:54:44;;;;;;;1999.90;999.90;;;13.60;99.90;;;;;;4953765;28;20997;-76
2024/02/15 00:57:11;;;;;;;1999.90;999.90;;;13.70;99.90;;;;;;4953916;28;20464;-75
2024/02/15 00:59:36;;;;;;;1999.90;999.90;;;13.70;99.90;;;;;;4953733;28;20411;-75
2024/02/15 01:02:02;;;;;;;1999.90;999.90;;;13.80;99.90;;;;;;4953863;28;20847;-76
2024/02/15 01:04:28;;;;;;;1999.90;999.90;;;13.80;99.90;;;;;;4953800;28;20571;-76
2024/02/15 01:06:54;;;;;;;1999.90;999.90;;;13.80;99.90;;;;;;4953736;28;20417;-76
2024/02/15 01:09:21;;;;;;;1999.90;999.90;;;13.80;99.90;;;;;;4953472;28;20405;-76
2024/02/15 01:11:47;;;;;;;1999.90;999.90;;;13.80;99.90;;;;;;4953843;28;20449;-75
2024/02/15 01:14:13;;;;;;;1999.90;999.90;;;13.80;99.90;;;;;;4953577;28;20441;-76
2024/02/15 01:16:38;;;;;;;1999.90;999.90;;;13.80;99.90;;;;;;4953728;28;20410;-76
2024/02/15 01:19:05;;;;;;;1999.90;999.90;;;13.80;99.90;;;;;;4953435;28;20509;-72
2024/02/15 01:21:33;;;;;;;1999.90;999.90;;;13.80;99.90;;;;;;4953668;28;20170;-76
2024/02/15 01:24:00;;;;;;;1999.90;999.90;;;13.80;99.90;;;;;;4953520;28;20513;-76
2024/02/15 01:26:26;;;;;;;1999.90;999.90;;;13.80;99.90;;;;;;4953673;28;20977;-77
2024/02/15 01:28:52;;;;;;;1999.90;999.90;;;13.80;99.90;;;;;;4953663;28;20406;-75
2024/02/15 01:31:18;;;;;;;1999.90;999.90;;;13.80;99.90;;;;;;4953716;28;20407;-77
2024/02/15 01:33:47;;;;;;;1999.90;999.90;;;13.80;99.90;;;;;;4957379;28;20205;-77
2024/02/15 01:36:17;;;;;;;1999.90;999.90;;;13.90;99.90;;;;;;4957381;28;20202;-76
2024/02/15 01:38:43;;;;;;;1999.90;999.90;;;13.90;99.90;;;;;;4957300;28;20400;-76
2024/02/15 01:41:09;;;;;;;1999.90;999.90;;;13.90;99.90;;;;;;4957221;28;20410;-76
2024/02/15 01:43:37;;;;;;;1999.90;999.90;;;13.90;99.90;;;;;;4957141;28;20784;-76
2024/02/15 01:46:09;;;;;;;1999.90;999.90;;;14.00;99.90;;;;;;4957189;28;20178;-77
2024/02/15 01:48:39;;;;;;;1999.90;999.90;;;14.10;99.90;;;;;;4957205;28;20443;-76
2024/02/15 01:51:06;;;;;;;1999.90;999.90;;;14.10;99.90;;;;;;4957178;28;20410;-76
2024/02/15 01:53:32;;;;;;;1999.90;999.90;;;14.20;99.90;;;;;;4956953;28;20850;-76
2024/02/15 01:55:59;;;;;;;1999.90;999.90;;;14.20;99.90;;;;;;4956952;28;20476;-76
2024/02/15 01:58:27;;;;;;;1999.90;999.90;;;14.20;99.90;;;;;;4957020;28;20422;-75
2024/02/15 02:00:56;;;;;;;1999.90;999.90;;;14.10;99.90;;;;;;4956896;28;21139;-76
2024/02/15 02:03:22;;;;;;;1999.90;999.90;;;14.00;99.90;;;;;;4956788;28;20918;-76
2024/02/15 02:05:48;;;;;;;1999.90;999.90;;;14.00;99.90;;;;;;4956914;28;20430;-77
2024/02/15 02:08:14;;;;;;;1999.90;999.90;;;13.80;99.90;;;;;;4956775;28;20411;-76
2024/02/15 02:10:40;;;;;;;1999.90;999.90;;;13.70;99.90;;;;;;4956601;28;20220;-77
2024/02/15 02:13:05;;;;;;;1999.90;999.90;;;13.60;99.90;;;;;;4956634;28;20197;-76
2024/02/15 02:15:32;;;;;;;1999.90;999.90;;;13.60;99.90;;;;;;4956631;28;20456;-76
2024/02/15 02:17:59;;;;;;;1999.90;999.90;;;13.50;99.90;;;;;;4956773;28;20166;-76
2024/02/15 02:20:25;;;;;;;1999.90;999.90;;;13.50;99.90;;;;;;4956589;28;20777;-76
2024/02/15 02:22:55;;;;;;;1999.90;999.90;;;13.50;99.90;;;;;;4956440;28;20411;-77
2024/02/15 02:25:20;;;;;;;1999.90;999.90;;;13.40;99.90;;;;;;4956642;28;20476;-76
2024/02/15 02:27:47;;;;;;;1999.90;999.90;;;13.40;99.90;;;;;;4956499;28;20808;-76
2024/02/15 02:30:18;;;;;;;1999.90;999.90;;;13.30;99.90;;;;;;4956165;28;20645;-76
2024/02/15 02:32:45;;;;;;;1999.90;999.90;;;13.30;99.90;;;;;;4956447;28;20415;-76
2024/02/15 02:35:13;;;;;;;1999.90;999.90;;;13.20;99.90;;;;;;4956318;28;20464;-76
2024/02/15 02:37:39;;;;;;;1999.90;999.90;;;13.20;99.90;;;;;;4956329;28;20990;-75
2024/02/15 02:40:08;;;;;;;1999.90;999.90;;;13.20;99.90;;;;;;4956212;28;20421;-76
2024/02/15 02:42:51;;;;;;;1999.90;999.90;;;13.10;99.90;;;;;;4955742;28;20440;-76
2024/02/15 02:45:17;;;;;;;1999.90;999.90;;;13.00;99.90;;;;;;4956227;28;20402;-76
2024/02/15 02:47:42;;;;;;;1999.90;999.90;;;13.00;99.90;;;;;;4956213;28;20818;-76
2024/02/15 02:50:08;;;;;;;1999.90;999.90;;;12.90;99.90;;;;;;4955895;28;20770;-75
2024/02/15 02:52:33;;;;;;;1999.90;999.90;;;12.90;99.90;;;;;;4956021;28;20173;-75
2024/02/15 02:54:59;;;;;;;1999.90;999.90;;;12.80;99.90;;;;;;4955893;28;20201;-75
2024/02/15 02:57:25;;;;;;;1999.90;999.90;;;12.80;99.90;;;;;;4955890;28;20664;-76
2024/02/15 02:59:51;;;;;;;1999.90;999.90;;;12.80;99.90;;;;;;4955678;28;20167;-76
2024/02/15 03:02:17;;;;;;;1999.90;999.90;;;12.80;99.90;;;;;;4955843;28;20173;-76
2024/02/15 03:04:43;;;;;;;1999.90;999.90;;;12.80;99.90;;;;;;4955750;28;20490;-76
2024/02/15 03:07:09;;;;;;;1999.90;999.90;;;12.90;99.90;;;;;;4970849;28;20929;-77
2024/02/15 03:09:37;;;;;;;1999.90;999.90;;;12.90;99.90;;;;;;4955551;28;20475;-77
2024/02/15 03:12:03;;;;;;;1999.90;999.90;;;12.90;99.90;;;;;;4955756;28;20711;-77
2024/02/15 03:14:30;;;;;;;1999.90;999.90;;;12.90;99.90;;;;;;4955473;28;20462;-77
2024/02/15 03:16:55;;;;;;;1999.90;999.90;;;12.90;99.90;;;;;;4955601;28;20420;-77
2024/02/15 03:19:22;;;;;;;1999.90;999.90;;;12.90;99.90;;;;;;4955351;28;20445;-76
2024/02/15 03:21:48;;;;;;;1999.90;999.90;;;12.90;99.90;;;;;;4955552;28;20165;-77
2024/02/15 03:24:14;;;;;;;1999.90;999.90;;;12.90;99.90;;;;;;4955325;28;20855;-77
2024/02/15 03:26:40;;;;;;;1999.90;999.90;;;13.00;99.90;;;;;;4955462;28;20738;-76
2024/02/15 03:29:07;;;;;;;1999.90;999.90;;;13.00;99.90;;;;;;4955171;28;20173;-76
2024/02/15 03:31:36;;;;;;;1999.90;999.90;;;13.00;99.90;;;;;;4955321;28;20409;-76
2024/02/15 03:34:04;;;;;;;1999.90;999.90;;;12.90;99.90;;;;;;4955224;28;20436;-76
2024/02/15 03:36:30;;;;;;;1999.90;999.90;;;13.00;99.90;;;;;;4955107;28;20461;-76
2024/02/15 03:38:55;;;;;;;1999.90;999.90;;;12.90;99.90;;;;;;4955110;28;20406;-76
2024/02/15 03:41:21;;;;;;;1999.90;999.90;;;13.00;99.90;;;;;;4955003;28;20180;-76
2024/02/15 03:43:47;;;;;;;1999.90;999.90;;;13.00;99.90;;;;;;4954937;28;20204;-76
2024/02/15 03:46:14;;;;;;;1999.90;999.90;;;12.90;99.90;;;;;;4955030;28;20420;-77
2024/02/15 03:48:43;;;;;;;1999.90;999.90;;;12.80;99.90;;;;;;4955077;28;20168;-77
2024/02/15 03:51:09;;;;;;;1999.90;999.90;;;12.80;99.90;;;;;;4954681;28;20555;-76
2024/02/15 03:53:36;;;;;;;1999.90;999.90;;;12.70;99.90;;;;;;4954717;28;20957;-76
2024/02/15 03:56:04;;;;;;;1999.90;999.90;;;12.70;99.90;;;;;;4954336;28;20710;-76
2024/02/15 03:58:32;;;;;;;1999.90;999.90;;;12.80;99.90;;;;;;4954803;28;20831;-76
2024/02/15 04:00:58;;;;;;;1999.90;999.90;;;12.60;99.90;;;;;;4954797;28;20834;-76
2024/02/15 04:03:24;;;;;;;1999.90;999.90;;;12.60;99.90;;;;;;4954655;28;21008;-74
2024/02/15 04:05:49;;;;;;;1999.90;999.90;;;12.60;99.90;;;;;;4954658;28;20404;-75
2024/02/15 04:08:16;;;;;;;1999.90;999.90;;;12.60;99.90;;;;;;4954584;28;20539;-76
2024/02/15 04:10:42;;;;;;;1999.90;999.90;;;12.60;99.90;;;;;;4954477;28;20177;-76
2024/02/15 04:13:07;;;;;;;1999.90;999.90;;;12.60;99.90;;;;;;4954518;28;20954;-76
2024/02/15 04:15:33;;;;;;;1999.90;999.90;;;12.60;99.90;;;;;;4954457;28;20452;-76
2024/02/15 04:17:59;;;;;;;1999.90;999.90;;;12.60;99.90;;;;;;4954567;28;20644;-76
2024/02/15 04:20:26;;;;;;;1999.90;999.90;;;12.60;99.90;;;;;;4954133;28;20451;-76
2024/02/15 04:22:52;;;;;;;1999.90;999.90;;;12.40;99.90;;;;;;4954316;28;20931;-76
2024/02/15 04:25:20;;;;;;;1999.90;999.90;;;12.60;99.90;;;;;;4954348;28;20478;-76
2024/02/15 04:27:47;;;;;;;1999.90;999.90;;;12.60;99.90;;;;;;4954351;28;20765;-77
2024/02/15 04:30:12;;;;;;;1999.90;999.90;;;12.60;99.90;;;;;;4954065;28;20424;-76
2024/02/15 04:32:38;;;;;;;1999.90;999.90;;;12.60;99.90;;;;;;4954312;28;20408;-77
2024/02/15 04:35:05;;;;;;;1999.90;999.90;;;12.60;99.90;;;;;;4953948;28;20212;-76
2024/02/15 04:37:32;;;;;;;1999.90;999.90;;;12.70;99.90;;;;;;4954223;28;20162;-76
2024/02/15 04:39:58;;;;;;;1999.90;999.90;;;12.70;99.90;;;;;;4953914;28;20950;-77
2024/02/15 04:42:26;;;;;;;1999.90;999.90;;;12.70;99.90;;;;;;4953976;28;20988;-76
2024/02/15 04:44:53;;;;;;;1999.90;999.90;;;12.70;99.90;;;;;;4954052;28;20438;-75
2024/02/15 04:47:20;;;;;;;1999.90;999.90;;;12.70;99.90;;;;;;4954044;28;20417;-75
2024/02/15 04:49:45;;;;;;;1999.90;999.90;;;12.60;99.90;;;;;;4953769;28;20751;-76
2024/02/15 04:52:11;;;;;;;1999.90;999.90;;;12.70;99.90;;;;;;4954048;28;20508;-76
2024/02/15 04:54:37;;;;;;;1999.90;999.90;;;12.70;99.90;;;;;;4953797;28;20215;-77
2024/02/15 04:57:03;;;;;;;1999.90;999.90;;;12.70;99.90;;;;;;4954027;28;20540;-76
2024/02/15 04:59:29;;;;;;;1999.90;999.90;;;12.60;99.90;;;;;;4953656;28;20400;-76
2024/02/15 05:01:56;;;;;;;1999.90;999.90;;;12.60;99.90;;;;;;4953922;28;20182;-77
2024/02/15 05:04:22;;;;;;;1999.90;999.90;;;12.60;99.90;;;;;;4953653;28;20188;-76
2024/02/15 05:06:48;;;;;;;1999.90;999.90;;;12.60;99.90;;;;;;4953736;28;20448;-76
2024/02/15 05:09:14;;;;;;;1999.90;999.90;;;12.60;99.90;;;;;;4953631;28;20441;-76
2024/02/15 05:11:46;;;;;;;1999.90;999.90;;;12.60;99.90;;;;;;4953774;28;20177;-76
2024/02/15 05:14:18;;;;;;;1999.90;999.90;;;12.60;99.90;;;;;;4953582;28;20242;-75
2024/02/15 05:16:47;;;;;;;1999.90;999.90;;;12.60;99.90;;;;;;4953732;28;20408;-76
2024/02/15 05:19:16;;;;;;;1999.90;999.90;;;12.60;99.90;;;;;;4953519;28;20434;-76
2024/02/15 05:21:44;;;;;;;1999.90;999.90;;;12.60;99.90;;;;;;4953697;28;20491;-76
2024/02/15 05:24:13;;;;;;;1999.90;999.90;;;12.60;99.90;;;;;;4953563;28;20432;-76
2024/02/15 05:26:39;;;;;;;1999.90;999.90;;;12.50;99.90;;;;;;4953726;28;20413;-74
2024/02/15 05:29:05;;;;;;;1999.90;999.90;;;12.50;99.90;;;;;;4953634;28;20441;-74
2024/02/15 05:31:30;;;;;;;1999.90;999.90;;;12.50;99.90;;;;;;4953458;28;20464;-74
2024/02/15 05:33:58;;;;;;;1999.90;999.90;;;12.50;99.90;;;;;;4953519;28;20674;-74
2024/02/15 05:36:25;;;;;;;1999.90;999.90;;;12.50;99.90;;;;;;4953639;28;20668;-74
2024/02/15 05:38:53;;;;;;;1999.90;999.90;;;12.40;99.90;;;;;;4953620;28;20407;-74
2024/02/15 05:41:20;;;;;;;1999.90;999.90;;;12.40;99.90;;;;;;4953210;28;20491;-74
2024/02/15 05:43:48;;;;;;;1999.90;999.90;;;12.40;99.90;;;;;;4953246;28;20447;-74
2024/02/15 05:46:14;;;;;;;1999.90;999.90;;;12.50;99.90;;;;;;4953474;28;20950;-74
2024/02/15 05:48:40;;;;;;;1999.90;999.90;;;12.40;99.90;;;;;;4953420;28;20424;-74
2024/02/15 05:51:09;;;;;;;1999.90;999.90;;;12.50;99.90;;;;;;4953342;28;20604;-74
2024/02/15 05:53:38;;;;;;;1999.90;999.90;;;12.50;99.90;;;;;;4953309;28;20427;-74
2024/02/15 05:56:05;;;;;;;1999.90;999.90;;;12.60;99.90;;;;;;4953371;28;20486;-74
2024/02/15 05:58:32;;;;;;;1999.90;999.90;;;12.60;99.90;;;;;;4953408;28;20913;-74
2024/02/15 06:01:01;;;;;;;1999.90;999.90;;;12.60;99.90;;;;;;4953166;28;20771;-74
2024/02/15 06:03:31;;;;;;;1999.90;999.90;;;12.60;99.90;;;;;;4953348;28;20882;-75
2024/02/15 06:05:58;;;;;;;1999.90;999.90;;;12.70;99.90;;;;;;4953424;28;20778;-74
2024/02/15 06:08:27;;;;;;;1999.90;999.90;;;12.70;99.90;;;;;;4953284;28;20409;-75
2024/02/15 06:10:53;;;;;;;1999.90;999.90;;;12.70;99.90;;;;;;4953056;28;20411;-75
2024/02/15 06:13:22;;;;;;;1999.90;999.90;;;12.80;99.90;;;;;;4953200;28;20434;-75
2024/02/15 06:15:52;;;;;;;1999.90;999.90;;;12.70;99.90;;;;;;4953260;28;20522;-74
2024/02/15 06:18:21;;;;;;;1999.90;999.90;;;12.70;99.90;;;;;;4954930;28;20409;-75
2024/02/15 06:20:49;;;;;;;1999.90;999.90;;;12.70;99.90;;;;;;5005517;23;20489;-72
2024/02/15 06:23:16;;;;;;;1999.90;999.90;;;12.80;99.90;;;;;;4975992;28;20420;-71
2024/02/15 06:25:42;;;;;;;1999.90;999.90;;;15.20;99.90;;;;;;4975909;28;20411;-72
2024/02/15 06:28:19;;;;;;;1999.90;999.90;;;12.90;99.90;;;;;;4975924;28;20509;-71
2024/02/15 06:41:44;;;;;;;1999.90;999.90;;;12.90;99.90;;;;;;4975607;28;20804;-71
2024/02/15 06:44:09;;;;;;;1999.90;999.90;;;12.90;99.90;;;;;;4975267;28;20877;-71
2024/02/15 06:46:35;;;;;;;1999.90;999.90;;;12.90;99.90;;;;;;4975339;28;20254;-71
2024/02/15 06:49:01;;;;;;;1999.90;999.90;;;12.90;99.90;;;;;;4975519;28;20582;-71
2024/02/15 06:51:27;;;;;;;1999.90;999.90;;;12.70;99.90;;;;;;4973859;28;20197;-71
2024/02/15 06:53:55;;;;;;;1999.90;999.90;;;12.80;99.90;;;;;;4975384;28;20409;-71
2024/02/15 06:56:21;;;;;;;1999.90;999.90;;;12.60;99.90;;;;;;4975371;28;20662;-71
2024/02/15 06:58:48;;;;;;;1999.90;999.90;;;12.60;99.90;;;;;;4975290;28;20407;-71
2024/02/15 07:01:16;;;;;;;1999.90;999.90;;;12.40;99.90;;;;;;4974873;28;20508;-71
2024/02/15 07:03:44;;;;;;;1999.90;999.90;;;12.60;99.90;;;;;;4975166;28;20488;-71
2024/02/15 07:06:09;;;;;;;1999.90;999.90;;;12.70;99.90;;;;;;4975228;28;20942;-71
2024/02/15 07:08:35;;;;;;;1999.90;999.90;;;12.60;99.90;;;;;;4974933;28;20440;-71
2024/02/15 07:11:03;;;;;;;1999.90;999.90;;;12.70;99.90;;;;;;4974386;28;20612;-70
2024/02/15 07:13:32;;;;;;;1999.90;999.90;;;12.60;99.90;;;;;;4974554;28;20262;-71
2024/02/15 07:15:57;;;;;;;1999.90;999.90;;;12.60;99.90;;;;;;4974765;28;20463;-71
2024/02/15 07:18:25;;;;;;;1999.90;999.90;;;12.70;99.90;;;;;;4974056;28;20901;-70
2024/02/15 07:20:50;;;;;;;1999.90;999.90;;;12.70;99.90;;;;;;4974248;28;20236;-71
2024/02/15 07:23:16;;;;;;;1999.90;999.90;;;12.70;99.90;;;;;;4974826;28;20445;-71
2024/02/15 07:25:42;;;;;;;1999.90;999.90;;;12.70;99.90;;;;;;4974850;28;20177;-71
2024/02/15 07:28:08;;;;;;;1999.90;999.90;;;12.80;99.90;;;;;;4973427;28;20265;-72
2024/02/15 07:30:34;;;;;;;1999.90;999.90;;;12.90;99.90;;;;;;4973287;28;20428;-71
2024/02/15 07:33:00;;;;;;;1999.90;999.90;;;12.70;99.90;;;;;;4974654;28;20414;-71
2024/02/15 07:35:25;;;;;;;1999.90;999.90;;;12.70;99.90;;;;;;4974566;28;20201;-71
2024/02/15 07:37:57;;;;;;;1999.90;999.90;;;12.70;99.90;;;;;;4974571;28;20268;-71
2024/02/15 07:40:27;;;;;;;1999.90;999.90;;;12.70;99.90;;;;;;4974149;28;20772;-71
2024/02/15 07:42:53;;;;;;;1999.90;999.90;;;12.70;99.90;;;;;;4973822;28;20406;-71
2024/02/15 07:45:18;;;;;;;1999.90;999.90;;;12.70;99.90;;;;;;4973679;28;20982;-71
2024/02/15 07:47:45;;;;;;;1999.90;999.90;;;12.70;99.90;;;;;;4974025;28;20633;-71
2024/02/15 07:50:12;;;;;;;1999.90;999.90;;;12.70;99.90;;;;;;4973422;28;20891;-72
2024/02/15 07:52:38;;;;;;;1999.90;999.90;;;12.70;99.90;;;;;;4973873;28;20416;-72
2024/02/15 07:55:08;;;;;;;1999.90;999.90;;;12.80;99.90;;;;;;4973745;28;20939;-72
2024/02/15 07:57:34;;;;;;;1999.90;999.90;;;12.80;99.90;;;;;;4974429;28;20199;-71
2024/02/15 08:00:00;;;;;;;1999.90;999.90;;;12.30;99.90;;;;;;4973821;28;20457;-71
2024/02/15 08:02:28;;;;;;;1999.90;999.90;;;12.80;99.90;;;;;;4974059;28;20409;-71
2024/02/15 08:04:54;;;;;;;1999.90;999.90;;;12.80;99.90;;;;;;4974062;28;20268;-71
2024/02/15 08:07:20;;;;;;;1999.90;999.90;;;12.80;99.90;;;;;;4974086;28;20417;-72
2024/02/15 08:09:46;;;;;;;1999.90;999.90;;;12.80;99.90;;;;;;4988464;28;20420;-71
2024/02/15 08:12:12;;;;;;;1999.90;999.90;;;12.90;99.90;;;;;;4973937;28;20776;-71
2024/02/15 08:14:39;;;;;;;1999.90;999.90;;;12.90;99.90;;;;;;4973752;28;20475;-71
2024/02/15 08:17:08;;;;;;;1999.90;999.90;;;12.90;99.90;;;;;;4974007;28;20693;-71
2024/02/15 08:19:34;;;;;;;1999.90;999.90;;;12.90;99.90;;;;;;4973597;28;20413;-71
2024/02/15 08:22:05;;;;;;;1999.90;999.90;;;12.90;99.90;;;;;;4973689;28;20869;-71
2024/02/15 08:24:31;;;;;;;1999.90;999.90;;;12.90;99.90;;;;;;4973783;28;20781;-71
2024/02/15 08:26:59;;;;;;;1999.90;999.90;;;13.00;99.90;;;;;;4973773;28;20405;-71
2024/02/15 08:29:25;;;;;;;1999.90;999.90;;;13.00;99.90;;;;;;4973438;28;20218;-71
2024/02/15 08:31:51;;;;;;;1999.90;999.90;;;13.00;99.90;;;;;;4973468;28;20424;-71
2024/02/15 08:34:18;;;;;;;1999.90;999.90;;;13.10;99.90;;;;;;4973602;28;20418;-72
2024/02/15 08:36:44;;;;;;;1999.90;999.90;;;13.10;99.90;;;;;;4973481;28;20176;-72
2024/02/15 08:39:11;;;;;;;1999.90;999.90;;;13.10;99.90;;;;;;4973315;28;20739;-73
2024/02/15 08:41:38;;;;;;;1999.90;999.90;;;13.20;99.90;;;;;;4973144;28;20955;-72
2024/02/15 08:44:09;;;;;;;1999.90;999.90;;;13.30;99.90;;;;;;4973360;28;20486;-72
2024/02/15 08:46:36;;;;;;;1999.90;999.90;;;13.30;99.90;;;;;;4973445;28;20420;-72
2024/02/15 08:49:02;;;;;;;1999.90;999.90;;;13.20;99.90;;;;;;4972151;28;20777;-72
2024/02/15 08:51:30;;;;;;;1999.90;999.90;;;13.60;99.90;;;;;;4973080;28;20811;-72
2024/02/15 08:53:56;;;;;;;1999.90;999.90;;;13.50;99.90;;;;;;4973288;28;20415;-72
2024/02/15 08:56:25;;;;;;;1999.90;999.90;;;;;;;;;;4973251;28;20456;-72
2024/02/15 08:58:50;;;;;;;1999.90;999.90;;;13.70;99.90;;;;;;4973101;28;20412;-72
2024/02/15 09:01:16;;;;;;;1999.90;999.90;;;;;;;;;;4973009;28;20992;-73
2024/02/15 09:03:42;;;;;;;1999.90;999.90;;;13.60;99.90;;;;;;4972939;28;20204;-72
2024/02/15 09:06:08;;;;;;;1999.90;999.90;;;13.70;99.90;;;;;;4973249;28;20441;-73
2024/02/15 09:08:34;;;;;;;1999.90;999.90;;;13.80;99.90;;;;;;4973101;28;20448;-72
2024/02/15 09:11:00;;;;;;;1999.90;999.90;;;;;;;;;;4972946;28;20790;-72
2024/02/15 09:13:25;;;;;;;1999.90;999.90;;;13.90;99.90;;;;;;4972991;28;20185;-72
2024/02/15 09:15:51;;;;;;;1999.90;999.90;;;14.00;99.90;;;;;;4973120;28;20452;-72
2024/02/15 09:18:22;;;;;;;1999.90;999.90;;;14.10;99.90;;;;;;4973163;28;20176;-72
2024/02/15 09:20:48;;;;;;;1999.90;999.90;;;14.20;99.90;;;;;;4972722;28;20341;-72
2024/02/15 09:23:14;;;;;;;1999.90;999.90;;;14.50;99.90;;;;;;4972475;28;20905;-73
2024/02/15 09:25:43;;;;;;;1999.90;999.90;;;14.40;99.90;;;;;;4972677;28;20507;-72
2024/02/15 09:28:09;;;;;;;1999.90;999.90;;;14.40;99.90;;;;;;4972964;28;20290;-72
2024/02/15 09:30:35;;;;;;;1999.90;999.90;;;14.60;99.90;;;;;;4972730;28;20931;-72
2024/02/15 09:33:04;;;;;;;1999.90;999.90;;;14.70;99.90;;;;;;4972909;28;20695;-72
2024/02/15 09:35:31;;;;;;;1999.90;999.90;;;14.80;99.90;;;;;;4972849;28;20671;-72
2024/02/15 09:37:57;;;;;;;1999.90;999.90;;;14.80;99.90;;;;;;4972904;28;20909;-72
2024/02/15 09:40:26;;;;;;;1999.90;999.90;;;14.80;99.90;;;;;;4972667;28;20445;-72
2024/02/15 09:42:52;;;;;;;1999.90;999.90;;;14.80;99.90;;;;;;4972870;28;20547;-72
2024/02/15 09:45:20;;;;;;;1999.90;999.90;;;14.80;99.90;;;;;;4989534;28;20414;-72
2024/02/15 09:47:49;;;;;;;1999.90;999.90;;;14.70;99.90;;;;;;4991947;28;20406;-72
2024/02/15 09:50:16;;;;;;;1999.90;999.90;;;14.70;99.90;;;;;;4987030;28;20443;-73
2024/02/15 09:52:51;;;;;;;1999.90;999.90;;;14.80;99.90;;;;;;4972537;28;20424;-71
2024/02/15 09:55:17;;;;;;;1999.90;999.90;;;14.80;99.90;;;;;;4975385;28;20456;-73
2024/02/15 09:57:46;;;;;;;1999.90;999.90;;;15.80;99.90;;;;;;4974999;28;20506;-72
2024/02/15 10:00:13;;;;;;;1999.90;999.90;;;14.80;99.90;;;;;;4974277;28;20533;-73
2024/02/15 10:02:41;;;;;;;1999.90;999.90;;;14.70;99.90;;;;;;4990057;28;20503;-72
2024/02/15 10:05:14;;;;;;;1999.90;999.90;;;14.80;99.90;;;;;;4975164;28;20413;-73
2024/02/15 10:07:46;;;;;;;1999.90;999.90;;;14.80;99.90;;;;;;4974589;28;20421;-72
2024/02/15 10:10:25;;;;;;;1999.90;999.90;;;14.90;99.90;;;;;;4974490;28;20452;-73
2024/02/15 10:12:54;;;;;;;1999.90;999.90;;;15.20;99.90;;;;;;4974368;28;20417;-73
2024/02/15 10:15:34;;;;;;;1999.90;999.90;;;15.10;99.90;;;;;;4974867;28;20546;-73
2024/02/15 10:18:02;;;;;;;1999.90;999.90;;;15.20;99.90;;;;;;4971643;28;20411;-72
2024/02/15 10:20:28;;;;;;;1999.90;999.90;;;15.40;99.90;;;;;;4974245;28;20962;-72
2024/02/15 10:23:09;;;;;;;1999.90;999.90;;;15.50;99.90;;;;;;4974738;28;20412;-71
2024/02/15 10:25:36;;;;;;;1999.90;999.90;;;15.60;99.90;;;;;;4974275;28;20173;-71
2024/02/15 10:28:09;;;;;;;1999.90;999.90;;;15.80;96.30;;;;;;4974698;28;20452;-72
2024/02/15 10:30:43;;;;;;;1999.90;999.90;;;15.90;97.40;;;;;;4974269;28;20784;-73
2024/02/15 10:33:09;;;;;;;1999.90;999.90;;;15.80;84.30;;;;;;4974478;28;20782;-72
2024/02/15 10:35:36;;;;;;;1999.90;999.90;;;15.80;78.30;;;;;;4974521;28;20457;-72
2024/02/15 10:38:07;;;;;;;1999.90;999.90;;;15.90;81.10;;;;;;4974515;28;20446;-73
2024/02/15 10:40:33;;;;;;;1999.90;999.90;;;16.00;92.50;;;;;;4973514;28;20430;-73
2024/02/15 10:43:00;;;;;;;1999.90;999.90;;;16.00;74.50;;;;;;4973137;28;20434;-71
2024/02/15 10:45:26;;;;;;;1999.90;999.90;;;16.10;85.70;;;;;;4973996;28;20414;-71
2024/02/15 10:47:52;;;;;;;1999.90;999.90;;;16.20;83.10;;;;;;4973784;28;20420;-71
2024/02/15 10:50:22;;;;;;;1999.90;999.90;;;16.30;83.70;;;;;;4973463;28;20610;-71
2024/02/15 10:52:58;;;;;;;1999.90;999.90;;;16.40;66.50;;;;;;4974235;28;20854;-71
2024/02/15 10:55:40;;;;;;;1999.90;999.90;;;16.40;73.50;;;;;;4973884;28;20456;-71
2024/02/15 10:58:07;;;;;;;1999.90;999.90;;;16.50;64.60;;;;;;4974108;28;20629;-70
2024/02/15 11:00:37;;;;;;;1999.90;999.90;;;16.50;55.30;;;;;;4973383;28;20434;-70
2024/02/15 11:03:08;;;;;;;1999.90;999.90;;;16.50;56.90;;;;;;4973633;28;20972;-70
2024/02/15 11:05:35;;;;;;;1999.90;999.90;;;16.70;51.60;;;;;;4974060;28;20413;-70
2024/02/15 11:08:11;;;;;;;1999.90;999.90;;;16.70;51.60;;;;;;4973828;28;20469;-70
2024/02/15 11:10:38;;;;;;;1999.90;999.90;;;16.70;43.20;;;;;;4972534;28;20441;-70
2024/02/15 11:13:04;;;;;;;1999.90;999.90;;;16.90;47.50;;;;;;4973828;28;20415;-70
2024/02/15 11:15:39;;;;;;;1999.90;999.90;;;16.90;38.50;;;;;;4973514;28;20462;-71
2024/02/15 11:18:05;;;;;;;1999.90;999.90;;;17.00;41.10;;;;;;4973814;28;20486;-70
2024/02/15 11:20:33;;;;;;;1999.90;999.90;;;17.10;40.00;;;;;;4972830;28;20460;-70
2024/02/15 11:23:04;;;;;;;1999.90;999.90;;;17.30;38.90;;;;;;4972571;28;20427;-71
2024/02/15 11:25:39;;;;;;;1999.90;999.90;;;17.50;35.60;;;;;;4973519;28;20431;-70
2024/02/15 11:28:23;;;;;;;1999.90;999.90;;;17.60;34.10;;;;;;4973698;28;20415;-71
2024/02/15 11:30:49;;;;;;;1999.90;999.90;;;17.70;30.40;;;;;;4972420;28;20492;-71
2024/02/15 11:33:38;;;;;;;1999.90;999.90;;;17.70;27.60;;;;;;4969179;28;20422;-72
2024/02/15 11:36:09;;;;;;;1999.90;999.90;;;17.70;26.10;;;;;;4972945;28;20515;-72
2024/02/15 11:38:35;;;;;;;1999.90;999.90;;;17.80;25.80;;;;;;4973492;28;20409;-72
2024/02/15 11:41:11;;;;;;;1999.90;999.90;;;17.90;24.60;;;;;;4973773;28;20429;-72
2024/02/15 11:43:43;;;;;;;1999.90;999.90;;;18.00;24.70;;;;;;4974390;28;20406;-71
2024/02/15 11:46:13;;;;;;;1999.90;999.90;;;18.20;18.50;;;;;;4988631;28;20518;-72
2024/02/15 11:48:42;;;;;;;1999.90;999.90;;;18.30;20.40;;;;;;4974105;28;20942;-72
2024/02/15 11:51:11;;;;;;;1999.90;999.90;;;18.50;14.00;;;;;;4973172;28;20445;-72
2024/02/15 11:53:37;;;;;;;1999.90;999.90;;;18.70;14.80;;;;;;4973811;28;20405;-72
2024/02/15 11:56:04;;;;;;;1999.90;999.90;;;18.70;25.80;;;;;;4973733;28;20470;-72
2024/02/15 11:58:41;;;;;;;1999.90;999.90;;;18.40;23.70;;;;;;4973606;28;20421;-72
2024/02/15 12:20:36;;;;;;;1999.90;999.90;;;18.60;11.40;;;;;;4973358;28;20452;-72
2024/02/15 12:23:06;;;;;;;1999.90;999.90;;;18.60;12.80;;;;;;4973524;28;20406;-72
2024/02/15 12:25:32;;;;;;;1999.90;999.90;;;18.60;10.40;;;;;;4973337;28;20496;-71
2024/02/15 12:28:00;;;;;;;1999.90;999.90;;;18.40;9.00;;;;;;4973568;28;20972;-72
2024/02/15 12:30:32;;;;;;;1999.90;999.90;;;18.30;11.60;;;;;;4987717;28;20528;-72
2024/02/15 12:33:10;;;;;;;1999.90;999.90;;;18.30;10.80;;;;;;4973477;28;20411;-71